sensor_id;sensor_type;location;lat;lon;timestamp;P1;durP1;ratioP1;P2;durP2;ratioP2
2313;SDS011;42279;51.388;7.000;2023-03-03T00:00:39;69.60;;;33.97;;
2313;SDS011;42279;51.388;7.000;2023-03-03T00:03:06;60.63;;;31.25;;
2313;SDS011;42279;51.388;7.000;2023-03-03T00:05:33;70.10;;;32.90;;
2313;SDS011;42279;51.388;7.000;2023-03-03T00:08:00;64.43;;;31.67;;
2313;SDS011;42279;51.388;7.000;2023-03-03T00:10:26;73.47;;;32.30;;
2313;SDS011;42279;51.388;7.000;2023-03-03T00:12:53;68.47;;;32.60;;
2313;SDS011;42279;51.388;7.000;2023-03-03T00:15:20;71.23;;;33.70;;
2313;SDS011;42279;51.388;7.000;2023-03-03T00:17:47;69.37;;;32.70;;
2313;SDS011;42279;51.388;7.000;2023-03-03T00:22:48;69.20;;;26.77;;
2313;SDS011;42279;51.388;7.000;2023-03-03T00:27:44;71.77;;;32.63;;
2313;SDS011;42279;51.388;7.000;2023-03-03T00:30:22;72.93;;;32.77;;
2313;SDS011;42279;51.388;7.000;2023-03-03T00:32:52;78.00;;;33.93;;
2313;SDS011;42279;51.388;7.000;2023-03-03T00:35:29;60.07;;;30.17;;
2313;SDS011;42279;51.388;7.000;2023-03-03T00:37:59;59.20;;;27.13;;
2313;SDS011;42279;51.388;7.000;2023-03-03T00:40:26;57.93;;;26.20;;
2313;SDS011;42279;51.388;7.000;2023-03-03T00:42:57;66.67;;;32.97;;
2313;SDS011;42279;51.388;7.000;2023-03-03T00:47:51;63.33;;;30.53;;
2313;SDS011;42279;51.388;7.000;2023-03-03T00:50:27;56.63;;;26.17;;
2313;SDS011;42279;51.388;7.000;2023-03-03T00:53:04;62.67;;;29.17;;
2313;SDS011;42279;51.388;7.000;2023-03-03T00:55:31;54.67;;;29.57;;
2313;SDS011;42279;51.388;7.000;2023-03-03T00:57:58;66.80;;;30.97;;
2313;SDS011;42279;51.388;7.000;2023-03-03T01:00:24;55.43;;;29.90;;
2313;SDS011;42279;51.388;7.000;2023-03-03T01:02:50;59.70;;;28.67;;
2313;SDS011;42279;51.388;7.000;2023-03-03T01:05:17;67.50;;;31.30;;
2313;SDS011;42279;51.388;7.000;2023-03-03T01:07:46;65.60;;;30.37;;
2313;SDS011;42279;51.388;7.000;2023-03-03T01:10:15;52.30;;;26.57;;
2313;SDS011;42279;51.388;7.000;2023-03-03T01:12:41;60.60;;;30.27;;
2313;SDS011;42279;51.388;7.000;2023-03-03T01:15:08;61.53;;;31.10;;
2313;SDS011;42279;51.388;7.000;2023-03-03T01:17:34;74.40;;;29.02;;
2313;SDS011;42279;51.388;7.000;2023-03-03T01:20:01;72.40;;;27.98;;
2313;SDS011;42279;51.388;7.000;2023-03-03T01:22:27;68.23;;;32.27;;
2313;SDS011;42279;51.388;7.000;2023-03-03T01:24:53;58.08;;;31.35;;
2313;SDS011;42279;51.388;7.000;2023-03-03T01:27:22;62.15;;;30.30;;
2313;SDS011;42279;51.388;7.000;2023-03-03T01:29:48;70.17;;;31.03;;
2313;SDS011;42279;51.388;7.000;2023-03-03T01:32:14;73.37;;;34.00;;
2313;SDS011;42279;51.388;7.000;2023-03-03T01:34:40;66.07;;;31.63;;
2313;SDS011;42279;51.388;7.000;2023-03-03T01:37:06;67.90;;;29.00;;
2313;SDS011;42279;51.388;7.000;2023-03-03T01:39:33;87.35;;;34.97;;
2313;SDS011;42279;51.388;7.000;2023-03-03T01:41:59;79.03;;;37.67;;
2313;SDS011;42279;51.388;7.000;2023-03-03T01:44:25;74.77;;;31.13;;
2313;SDS011;42279;51.388;7.000;2023-03-03T01:46:57;79.77;;;34.70;;
2313;SDS011;42279;51.388;7.000;2023-03-03T01:52:00;98.85;;;36.22;;
2313;SDS011;42279;51.388;7.000;2023-03-03T01:54:28;68.87;;;34.87;;
2313;SDS011;42279;51.388;7.000;2023-03-03T01:56:56;81.13;;;35.17;;
2313;SDS011;42279;51.388;7.000;2023-03-03T01:59:25;79.25;;;34.78;;
2313;SDS011;42279;51.388;7.000;2023-03-03T02:01:53;70.40;;;29.37;;
2313;SDS011;42279;51.388;7.000;2023-03-03T02:04:19;67.60;;;29.17;;
2313;SDS011;42279;51.388;7.000;2023-03-03T02:12:11;69.73;;;28.30;;
2313;SDS011;42279;51.388;7.000;2023-03-03T02:14:38;73.20;;;32.70;;
2313;SDS011;42279;51.388;7.000;2023-03-03T02:17:04;94.97;;;37.70;;
2313;SDS011;42279;51.388;7.000;2023-03-03T02:20:32;94.53;;;38.80;;
2313;SDS011;42279;51.388;7.000;2023-03-03T02:22:41;89.70;;;39.00;;
2313;SDS011;42279;51.388;7.000;2023-03-03T02:25:10;98.50;;;37.07;;
2313;SDS011;42279;51.388;7.000;2023-03-03T02:27:38;89.23;;;33.00;;
2313;SDS011;42279;51.388;7.000;2023-03-03T02:30:09;67.10;;;30.77;;
2313;SDS011;42279;51.388;7.000;2023-03-03T02:32:35;84.87;;;37.23;;
2313;SDS011;42279;51.388;7.000;2023-03-03T02:35:19;85.70;;;33.33;;
2313;SDS011;42279;51.388;7.000;2023-03-03T02:37:47;77.83;;;31.30;;
2313;SDS011;42279;51.388;7.000;2023-03-03T02:40:14;80.37;;;33.33;;
2313;SDS011;42279;51.388;7.000;2023-03-03T02:42:40;78.60;;;28.90;;
2313;SDS011;42279;51.388;7.000;2023-03-03T02:45:07;81.83;;;32.80;;
2313;SDS011;42279;51.388;7.000;2023-03-03T02:47:33;83.47;;;36.67;;
2313;SDS011;42279;51.388;7.000;2023-03-03T02:49:59;73.53;;;33.60;;
2313;SDS011;42279;51.388;7.000;2023-03-03T02:52:25;90.83;;;36.33;;
2313;SDS011;42279;51.388;7.000;2023-03-03T02:54:51;83.77;;;36.07;;
2313;SDS011;42279;51.388;7.000;2023-03-03T02:57:17;62.40;;;25.45;;
2313;SDS011;42279;51.388;7.000;2023-03-03T02:59:43;80.20;;;34.10;;
2313;SDS011;42279;51.388;7.000;2023-03-03T03:02:09;94.47;;;36.93;;
2313;SDS011;42279;51.388;7.000;2023-03-03T03:04:35;75.40;;;30.37;;
2313;SDS011;42279;51.388;7.000;2023-03-03T03:07:01;77.40;;;32.93;;
2313;SDS011;42279;51.388;7.000;2023-03-03T03:09:27;90.40;;;34.47;;
2313;SDS011;42279;51.388;7.000;2023-03-03T03:11:53;83.07;;;34.20;;
2313;SDS011;42279;51.388;7.000;2023-03-03T03:14:19;79.30;;;30.83;;
2313;SDS011;42279;51.388;7.000;2023-03-03T03:16:45;63.93;;;28.73;;
2313;SDS011;42279;51.388;7.000;2023-03-03T03:19:11;70.80;;;27.67;;
2313;SDS011;42279;51.388;7.000;2023-03-03T03:21:37;77.53;;;29.00;;
2313;SDS011;42279;51.388;7.000;2023-03-03T03:24:03;78.53;;;34.20;;
2313;SDS011;42279;51.388;7.000;2023-03-03T03:26:29;77.37;;;33.50;;
2313;SDS011;42279;51.388;7.000;2023-03-03T03:28:55;79.53;;;34.10;;
2313;SDS011;42279;51.388;7.000;2023-03-03T03:31:21;72.20;;;32.60;;
2313;SDS011;42279;51.388;7.000;2023-03-03T03:33:47;89.60;;;35.13;;
2313;SDS011;42279;51.388;7.000;2023-03-03T03:36:13;81.93;;;34.33;;
2313;SDS011;42279;51.388;7.000;2023-03-03T03:38:39;82.50;;;31.03;;
2313;SDS011;42279;51.388;7.000;2023-03-03T03:41:05;82.43;;;33.33;;
2313;SDS011;42279;51.388;7.000;2023-03-03T03:43:32;75.53;;;30.00;;
2313;SDS011;42279;51.388;7.000;2023-03-03T03:45:58;88.73;;;33.40;;
2313;SDS011;42279;51.388;7.000;2023-03-03T03:48:24;72.47;;;30.80;;
2313;SDS011;42279;51.388;7.000;2023-03-03T03:50:50;80.60;;;36.47;;
2313;SDS011;42279;51.388;7.000;2023-03-03T03:53:17;85.73;;;32.10;;
2313;SDS011;42279;51.388;7.000;2023-03-03T03:55:43;81.45;;;31.40;;
2313;SDS011;42279;51.388;7.000;2023-03-03T03:58:14;100.27;;;35.47;;
2313;SDS011;42279;51.388;7.000;2023-03-03T04:00:41;100.03;;;35.07;;
2313;SDS011;42279;51.388;7.000;2023-03-03T04:03:08;90.37;;;31.57;;
2313;SDS011;42279;51.388;7.000;2023-03-03T04:05:34;82.93;;;33.20;;
2313;SDS011;42279;51.388;7.000;2023-03-03T04:08:00;94.70;;;37.67;;
2313;SDS011;42279;51.388;7.000;2023-03-03T04:10:27;86.80;;;35.20;;
2313;SDS011;42279;51.388;7.000;2023-03-03T04:12:53;66.80;;;29.10;;
2313;SDS011;42279;51.388;7.000;2023-03-03T04:15:19;62.70;;;28.10;;
2313;SDS011;42279;51.388;7.000;2023-03-03T04:17:45;54.33;;;25.33;;
2313;SDS011;42279;51.388;7.000;2023-03-03T04:20:12;63.40;;;23.70;;
2313;SDS011;42279;51.388;7.000;2023-03-03T04:22:42;61.03;;;25.50;;
2313;SDS011;42279;51.388;7.000;2023-03-03T04:25:10;49.27;;;22.63;;
2313;SDS011;42279;51.388;7.000;2023-03-03T04:27:37;63.40;;;22.77;;
2313;SDS011;42279;51.388;7.000;2023-03-03T04:30:04;45.67;;;18.80;;
2313;SDS011;42279;51.388;7.000;2023-03-03T04:32:31;48.87;;;19.90;;
2313;SDS011;42279;51.388;7.000;2023-03-03T04:35:00;41.70;;;18.93;;
2313;SDS011;42279;51.388;7.000;2023-03-03T04:37:26;43.80;;;20.27;;
2313;SDS011;42279;51.388;7.000;2023-03-03T04:39:52;50.90;;;22.77;;
2313;SDS011;42279;51.388;7.000;2023-03-03T04:42:18;51.37;;;21.77;;
2313;SDS011;42279;51.388;7.000;2023-03-03T04:44:44;46.50;;;22.13;;
2313;SDS011;42279;51.388;7.000;2023-03-03T04:47:10;41.53;;;16.20;;
2313;SDS011;42279;51.388;7.000;2023-03-03T04:49:36;55.70;;;24.73;;
2313;SDS011;42279;51.388;7.000;2023-03-03T04:52:02;46.93;;;18.40;;
2313;SDS011;42279;51.388;7.000;2023-03-03T04:54:28;47.73;;;21.07;;
2313;SDS011;42279;51.388;7.000;2023-03-03T04:56:54;50.85;;;22.38;;
2313;SDS011;42279;51.388;7.000;2023-03-03T04:59:20;35.03;;;16.20;;
2313;SDS011;42279;51.388;7.000;2023-03-03T05:01:46;45.00;;;24.10;;
2313;SDS011;42279;51.388;7.000;2023-03-03T05:04:15;52.00;;;21.43;;
2313;SDS011;42279;51.388;7.000;2023-03-03T05:06:41;51.03;;;23.40;;
2313;SDS011;42279;51.388;7.000;2023-03-03T05:09:07;40.43;;;19.60;;
2313;SDS011;42279;51.388;7.000;2023-03-03T05:11:33;43.93;;;20.70;;
2313;SDS011;42279;51.388;7.000;2023-03-03T05:13:59;52.83;;;20.47;;
2313;SDS011;42279;51.388;7.000;2023-03-03T05:16:27;47.17;;;21.13;;
2313;SDS011;42279;51.388;7.000;2023-03-03T05:18:53;46.03;;;21.10;;
2313;SDS011;42279;51.388;7.000;2023-03-03T05:21:19;39.40;;;20.67;;
2313;SDS011;42279;51.388;7.000;2023-03-03T05:23:45;43.50;;;21.27;;
2313;SDS011;42279;51.388;7.000;2023-03-03T05:26:11;44.83;;;19.00;;
2313;SDS011;42279;51.388;7.000;2023-03-03T05:28:37;39.28;;;17.48;;
2313;SDS011;42279;51.388;7.000;2023-03-03T05:31:03;38.87;;;17.97;;
2313;SDS011;42279;51.388;7.000;2023-03-03T05:33:29;45.43;;;18.73;;
2313;SDS011;42279;51.388;7.000;2023-03-03T05:35:55;29.93;;;17.20;;
2313;SDS011;42279;51.388;7.000;2023-03-03T05:38:22;28.73;;;13.75;;
2313;SDS011;42279;51.388;7.000;2023-03-03T05:40:48;27.53;;;14.40;;
2313;SDS011;42279;51.388;7.000;2023-03-03T05:43:14;35.80;;;15.63;;
2313;SDS011;42279;51.388;7.000;2023-03-03T05:45:40;35.17;;;19.70;;
2313;SDS011;42279;51.388;7.000;2023-03-03T05:48:06;37.77;;;17.90;;
2313;SDS011;42279;51.388;7.000;2023-03-03T05:50:34;39.30;;;18.73;;
2313;SDS011;42279;51.388;7.000;2023-03-03T05:53:00;45.57;;;18.97;;
2313;SDS011;42279;51.388;7.000;2023-03-03T05:55:27;42.73;;;20.13;;
2313;SDS011;42279;51.388;7.000;2023-03-03T05:57:53;40.37;;;19.43;;
2313;SDS011;42279;51.388;7.000;2023-03-03T06:00:19;41.63;;;17.90;;
2313;SDS011;42279;51.388;7.000;2023-03-03T06:02:45;33.90;;;14.07;;
2313;SDS011;42279;51.388;7.000;2023-03-03T06:05:11;48.70;;;19.90;;
2313;SDS011;42279;51.388;7.000;2023-03-03T06:07:40;38.70;;;17.57;;
2313;SDS011;42279;51.388;7.000;2023-03-03T06:10:06;38.43;;;19.03;;
2313;SDS011;42279;51.388;7.000;2023-03-03T06:12:32;41.10;;;19.63;;
2313;SDS011;42279;51.388;7.000;2023-03-03T06:14:58;40.73;;;17.33;;
2313;SDS011;42279;51.388;7.000;2023-03-03T06:17:24;50.97;;;20.27;;
2313;SDS011;42279;51.388;7.000;2023-03-03T06:19:50;46.30;;;18.67;;
2313;SDS011;42279;51.388;7.000;2023-03-03T06:22:16;44.17;;;19.33;;
2313;SDS011;42279;51.388;7.000;2023-03-03T06:24:42;46.03;;;20.70;;
2313;SDS011;42279;51.388;7.000;2023-03-03T06:27:08;44.13;;;16.57;;
2313;SDS011;42279;51.388;7.000;2023-03-03T06:29:34;39.43;;;17.87;;
2313;SDS011;42279;51.388;7.000;2023-03-03T06:32:00;40.83;;;19.27;;
2313;SDS011;42279;51.388;7.000;2023-03-03T06:34:26;37.63;;;18.27;;
2313;SDS011;42279;51.388;7.000;2023-03-03T06:36:52;38.50;;;18.70;;
2313;SDS011;42279;51.388;7.000;2023-03-03T06:39:18;46.40;;;19.43;;
2313;SDS011;42279;51.388;7.000;2023-03-03T06:41:44;45.07;;;19.87;;
2313;SDS011;42279;51.388;7.000;2023-03-03T06:44:11;42.83;;;19.23;;
2313;SDS011;42279;51.388;7.000;2023-03-03T06:46:37;40.27;;;16.27;;
2313;SDS011;42279;51.388;7.000;2023-03-03T06:49:03;39.40;;;19.17;;
2313;SDS011;42279;51.388;7.000;2023-03-03T06:51:33;50.13;;;21.30;;
2313;SDS011;42279;51.388;7.000;2023-03-03T06:54:10;42.53;;;17.60;;
2313;SDS011;42279;51.388;7.000;2023-03-03T06:56:37;44.43;;;21.13;;
2313;SDS011;42279;51.388;7.000;2023-03-03T06:59:10;50.73;;;21.67;;
2313;SDS011;42279;51.388;7.000;2023-03-03T07:01:37;35.67;;;17.57;;
2313;SDS011;42279;51.388;7.000;2023-03-03T07:04:09;60.47;;;24.30;;
2313;SDS011;42279;51.388;7.000;2023-03-03T07:06:38;55.00;;;21.27;;
2313;SDS011;42279;51.388;7.000;2023-03-03T07:09:07;66.73;;;22.40;;
2313;SDS011;42279;51.388;7.000;2023-03-03T07:11:34;51.17;;;20.67;;
2313;SDS011;42279;51.388;7.000;2023-03-03T07:14:04;57.73;;;21.10;;
2313;SDS011;42279;51.388;7.000;2023-03-03T07:16:34;54.27;;;22.23;;
2313;SDS011;42279;51.388;7.000;2023-03-03T07:19:00;53.40;;;24.33;;
2313;SDS011;42279;51.388;7.000;2023-03-03T07:21:34;58.57;;;24.17;;
2313;SDS011;42279;51.388;7.000;2023-03-03T07:24:07;63.87;;;23.67;;
2313;SDS011;42279;51.388;7.000;2023-03-03T07:26:38;57.00;;;23.80;;
2313;SDS011;42279;51.388;7.000;2023-03-03T07:29:21;56.00;;;23.53;;
2313;SDS011;42279;51.388;7.000;2023-03-03T07:31:49;66.07;;;25.47;;
2313;SDS011;42279;51.388;7.000;2023-03-03T07:36:48;59.30;;;24.70;;
2313;SDS011;42279;51.388;7.000;2023-03-03T07:41:40;54.87;;;24.97;;
2313;SDS011;42279;51.388;7.000;2023-03-03T07:44:29;53.20;;;24.63;;
2313;SDS011;42279;51.388;7.000;2023-03-03T07:46:58;52.90;;;23.23;;
2313;SDS011;42279;51.388;7.000;2023-03-03T07:49:36;50.60;;;20.77;;
2313;SDS011;42279;51.388;7.000;2023-03-03T07:52:16;49.73;;;21.63;;
2313;SDS011;42279;51.388;7.000;2023-03-03T07:54:45;57.07;;;23.53;;
2313;SDS011;42279;51.388;7.000;2023-03-03T07:59:37;52.30;;;20.40;;
2313;SDS011;42279;51.388;7.000;2023-03-03T08:02:12;51.00;;;20.03;;
2313;SDS011;42279;51.388;7.000;2023-03-03T08:04:45;52.60;;;25.63;;
2313;SDS011;42279;51.388;7.000;2023-03-03T08:07:18;45.93;;;21.83;;
2313;SDS011;42279;51.388;7.000;2023-03-03T08:09:47;47.90;;;23.00;;
2313;SDS011;42279;51.388;7.000;2023-03-03T08:14:43;48.60;;;23.67;;
2313;SDS011;42279;51.388;7.000;2023-03-03T08:17:13;48.97;;;23.03;;
2313;SDS011;42279;51.388;7.000;2023-03-03T08:19:42;57.30;;;25.97;;
2313;SDS011;42279;51.388;7.000;2023-03-03T08:22:08;46.70;;;22.90;;
2313;SDS011;42279;51.388;7.000;2023-03-03T08:24:36;58.27;;;22.47;;
2313;SDS011;42279;51.388;7.000;2023-03-03T08:27:02;57.30;;;22.20;;
2313;SDS011;42279;51.388;7.000;2023-03-03T08:29:28;55.20;;;23.43;;
2313;SDS011;42279;51.388;7.000;2023-03-03T08:31:54;58.63;;;23.37;;
2313;SDS011;42279;51.388;7.000;2023-03-03T08:34:20;70.20;;;26.60;;
2313;SDS011;42279;51.388;7.000;2023-03-03T08:36:46;54.00;;;24.07;;
2313;SDS011;42279;51.388;7.000;2023-03-03T08:39:13;64.33;;;25.40;;
2313;SDS011;42279;51.388;7.000;2023-03-03T08:41:39;55.80;;;24.63;;
2313;SDS011;42279;51.388;7.000;2023-03-03T08:44:08;52.83;;;24.67;;
2313;SDS011;42279;51.388;7.000;2023-03-03T08:46:33;47.00;;;22.50;;
2313;SDS011;42279;51.388;7.000;2023-03-03T08:48:59;58.87;;;23.77;;
2313;SDS011;42279;51.388;7.000;2023-03-03T08:51:25;56.67;;;24.27;;
2313;SDS011;42279;51.388;7.000;2023-03-03T08:53:52;49.63;;;21.87;;
2313;SDS011;42279;51.388;7.000;2023-03-03T08:56:18;54.07;;;23.50;;
2313;SDS011;42279;51.388;7.000;2023-03-03T08:58:44;51.80;;;18.97;;
2313;SDS011;42279;51.388;7.000;2023-03-03T09:01:12;53.10;;;22.40;;
2313;SDS011;42279;51.388;7.000;2023-03-03T09:03:40;67.67;;;23.60;;
2313;SDS011;42279;51.388;7.000;2023-03-03T09:06:06;43.40;;;19.37;;
2313;SDS011;42279;51.388;7.000;2023-03-03T09:08:32;41.15;;;16.77;;
2313;SDS011;42279;51.388;7.000;2023-03-03T09:10:58;40.10;;;19.70;;
2313;SDS011;42279;51.388;7.000;2023-03-03T09:13:25;49.13;;;19.30;;
2313;SDS011;42279;51.388;7.000;2023-03-03T09:15:53;47.40;;;21.97;;
2313;SDS011;42279;51.388;7.000;2023-03-03T09:18:31;52.30;;;22.40;;
2313;SDS011;42279;51.388;7.000;2023-03-03T09:20:59;48.43;;;20.30;;
2313;SDS011;42279;51.388;7.000;2023-03-03T09:24:03;42.57;;;18.57;;
2313;SDS011;42279;51.388;7.000;2023-03-03T09:31:36;45.13;;;19.63;;
2313;SDS011;42279;51.388;7.000;2023-03-03T09:34:09;44.50;;;20.10;;
2313;SDS011;42279;51.388;7.000;2023-03-03T09:36:37;36.50;;;17.87;;
2313;SDS011;42279;51.388;7.000;2023-03-03T09:39:22;35.37;;;17.20;;
2313;SDS011;42279;51.388;7.000;2023-03-03T09:52:41;42.20;;;19.83;;
2313;SDS011;42279;51.388;7.000;2023-03-03T09:55:33;40.60;;;20.03;;
2313;SDS011;42279;51.388;7.000;2023-03-03T10:06:02;50.83;;;22.90;;
2313;SDS011;42279;51.388;7.000;2023-03-03T10:18:51;40.63;;;18.37;;
2313;SDS011;42279;51.388;7.000;2023-03-03T10:21:22;43.20;;;19.43;;
2313;SDS011;42279;51.388;7.000;2023-03-03T10:23:59;37.63;;;17.83;;
2313;SDS011;42279;51.388;7.000;2023-03-03T10:28:56;33.60;;;18.00;;
2313;SDS011;42279;51.388;7.000;2023-03-03T10:34:22;30.73;;;16.63;;
2313;SDS011;42279;51.388;7.000;2023-03-03T10:45:21;38.73;;;19.73;;
2313;SDS011;42279;51.388;7.000;2023-03-03T10:47:43;42.20;;;18.50;;
2313;SDS011;42279;51.388;7.000;2023-03-03T10:55:33;43.30;;;18.17;;
2313;SDS011;42279;51.388;7.000;2023-03-03T11:06:01;40.20;;;19.30;;
2313;SDS011;42279;51.388;7.000;2023-03-03T11:08:42;38.30;;;18.80;;
2313;SDS011;42279;51.388;7.000;2023-03-03T11:11:13;36.90;;;19.53;;
2313;SDS011;42279;51.388;7.000;2023-03-03T11:16:28;47.47;;;19.17;;
2313;SDS011;42279;51.388;7.000;2023-03-03T11:21:33;34.20;;;16.97;;
2313;SDS011;42279;51.388;7.000;2023-03-03T11:26:45;39.80;;;19.90;;
2313;SDS011;42279;51.388;7.000;2023-03-03T11:31:46;35.27;;;18.27;;
2313;SDS011;42279;51.388;7.000;2023-03-03T11:34:20;40.53;;;17.30;;
2313;SDS011;42279;51.388;7.000;2023-03-03T11:36:55;36.60;;;19.17;;
2313;SDS011;42279;51.388;7.000;2023-03-03T11:39:22;34.47;;;17.37;;
2313;SDS011;42279;51.388;7.000;2023-03-03T11:47:03;34.70;;;16.47;;
2313;SDS011;42279;51.388;7.000;2023-03-03T11:49:46;38.03;;;17.57;;
2313;SDS011;42279;51.388;7.000;2023-03-03T11:52:37;42.33;;;17.97;;
2313;SDS011;42279;51.388;7.000;2023-03-03T11:57:46;40.97;;;20.00;;
2313;SDS011;42279;51.388;7.000;2023-03-03T12:08:13;40.97;;;19.30;;
2313;SDS011;42279;51.388;7.000;2023-03-03T12:18:36;27.73;;;14.70;;
2313;SDS011;42279;51.388;7.000;2023-03-03T12:26:10;32.80;;;16.67;;
2313;SDS011;42279;51.388;7.000;2023-03-03T12:28:40;41.23;;;19.93;;
2313;SDS011;42279;51.388;7.000;2023-03-03T12:31:10;36.80;;;17.63;;
2313;SDS011;42279;51.388;7.000;2023-03-03T12:33:50;34.37;;;16.30;;
2313;SDS011;42279;51.388;7.000;2023-03-03T12:36:24;35.83;;;16.87;;
2313;SDS011;42279;51.388;7.000;2023-03-03T12:46:58;28.50;;;15.00;;
2313;SDS011;42279;51.388;7.000;2023-03-03T12:49:30;37.00;;;17.10;;
2313;SDS011;42279;51.388;7.000;2023-03-03T12:54:44;32.70;;;18.80;;
2313;SDS011;42279;51.388;7.000;2023-03-03T13:00:51;35.53;;;17.67;;
2313;SDS011;42279;51.388;7.000;2023-03-03T13:05:29;41.27;;;20.37;;
2313;SDS011;42279;51.388;7.000;2023-03-03T13:10:44;44.17;;;20.20;;
2313;SDS011;42279;51.388;7.000;2023-03-03T13:25:48;40.67;;;18.23;;
2313;SDS011;42279;51.388;7.000;2023-03-03T13:30:42;37.77;;;17.83;;
2313;SDS011;42279;51.388;7.000;2023-03-03T13:35:44;35.70;;;16.83;;
2313;SDS011;42279;51.388;7.000;2023-03-03T13:38:16;30.70;;;15.17;;
2313;SDS011;42279;51.388;7.000;2023-03-03T13:40:44;29.93;;;16.90;;
2313;SDS011;42279;51.388;7.000;2023-03-03T13:43:21;34.23;;;17.90;;
2313;SDS011;42279;51.388;7.000;2023-03-03T13:50:52;33.57;;;19.60;;
2313;SDS011;42279;51.388;7.000;2023-03-03T13:55:56;29.50;;;16.40;;
2313;SDS011;42279;51.388;7.000;2023-03-03T13:58:27;35.90;;;17.13;;
2313;SDS011;42279;51.388;7.000;2023-03-03T14:01:03;30.20;;;17.30;;
2313;SDS011;42279;51.388;7.000;2023-03-03T14:03:44;32.47;;;18.40;;
2313;SDS011;42279;51.388;7.000;2023-03-03T14:06:17;33.33;;;19.13;;
2313;SDS011;42279;51.388;7.000;2023-03-03T14:08:48;31.03;;;17.87;;
2313;SDS011;42279;51.388;7.000;2023-03-03T14:11:28;36.27;;;19.80;;
2313;SDS011;42279;51.388;7.000;2023-03-03T14:14:00;30.73;;;17.40;;
2313;SDS011;42279;51.388;7.000;2023-03-03T14:20:11;31.40;;;17.20;;
2313;SDS011;42279;51.388;7.000;2023-03-03T14:22:17;30.97;;;18.50;;
2313;SDS011;42279;51.388;7.000;2023-03-03T14:24:53;31.13;;;17.67;;
2313;SDS011;42279;51.388;7.000;2023-03-03T14:27:25;30.77;;;16.80;;
2313;SDS011;42279;51.388;7.000;2023-03-03T14:29:51;31.77;;;18.23;;
2313;SDS011;42279;51.388;7.000;2023-03-03T14:32:22;27.40;;;18.03;;
2313;SDS011;42279;51.388;7.000;2023-03-03T14:34:56;27.70;;;17.90;;
2313;SDS011;42279;51.388;7.000;2023-03-03T14:40:00;27.23;;;18.20;;
2313;SDS011;42279;51.388;7.000;2023-03-03T14:42:32;29.47;;;17.77;;
2313;SDS011;42279;51.388;7.000;2023-03-03T14:44:58;33.37;;;19.40;;
2313;SDS011;42279;51.388;7.000;2023-03-03T14:47:26;27.37;;;18.40;;
2313;SDS011;42279;51.388;7.000;2023-03-03T14:49:54;28.73;;;17.30;;
2313;SDS011;42279;51.388;7.000;2023-03-03T14:52:25;29.30;;;17.27;;
2313;SDS011;42279;51.388;7.000;2023-03-03T14:54:55;30.63;;;18.63;;
2313;SDS011;42279;51.388;7.000;2023-03-03T15:00:00;25.90;;;17.80;;
2313;SDS011;42279;51.388;7.000;2023-03-03T15:02:34;26.87;;;16.90;;
2313;SDS011;42279;51.388;7.000;2023-03-03T15:05:44;29.50;;;18.50;;
2313;SDS011;42279;51.388;7.000;2023-03-03T15:07:51;25.73;;;16.97;;
2313;SDS011;42279;51.388;7.000;2023-03-03T15:10:28;25.63;;;16.43;;
2313;SDS011;42279;51.388;7.000;2023-03-03T15:12:54;29.23;;;17.93;;
2313;SDS011;42279;51.388;7.000;2023-03-03T15:15:22;27.03;;;15.50;;
2313;SDS011;42279;51.388;7.000;2023-03-03T15:25:27;26.60;;;16.77;;
2313;SDS011;42279;51.388;7.000;2023-03-03T15:30:34;26.27;;;16.43;;
2313;SDS011;42279;51.388;7.000;2023-03-03T15:38:02;26.27;;;16.77;;
2313;SDS011;42279;51.388;7.000;2023-03-03T15:40:29;31.80;;;15.00;;
2313;SDS011;42279;51.388;7.000;2023-03-03T15:43:12;30.07;;;16.73;;
2313;SDS011;42279;51.388;7.000;2023-03-03T15:51:13;23.27;;;15.77;;
2313;SDS011;42279;51.388;7.000;2023-03-03T16:17:03;25.20;;;16.43;;
2313;SDS011;42279;51.388;7.000;2023-03-03T16:19:45;23.77;;;14.70;;
2313;SDS011;42279;51.388;7.000;2023-03-03T16:33:30;24.13;;;14.70;;
2313;SDS011;42279;51.388;7.000;2023-03-03T16:35:25;27.83;;;15.17;;
2313;SDS011;42279;51.388;7.000;2023-03-03T16:38:00;25.60;;;15.53;;
2313;SDS011;42279;51.388;7.000;2023-03-03T16:40:29;28.00;;;15.87;;
2313;SDS011;42279;51.388;7.000;2023-03-03T16:42:59;32.80;;;15.83;;
2313;SDS011;42279;51.388;7.000;2023-03-03T16:45:35;25.60;;;15.10;;
2313;SDS011;42279;51.388;7.000;2023-03-03T16:48:12;30.10;;;15.60;;
2313;SDS011;42279;51.388;7.000;2023-03-03T16:58:34;24.93;;;14.93;;
2313;SDS011;42279;51.388;7.000;2023-03-03T17:06:32;32.30;;;15.63;;
2313;SDS011;42279;51.388;7.000;2023-03-03T17:16:40;26.10;;;13.47;;
2313;SDS011;42279;51.388;7.000;2023-03-03T17:22:11;26.77;;;15.27;;
2313;SDS011;42279;51.388;7.000;2023-03-03T17:29:50;36.60;;;15.20;;
2313;SDS011;42279;51.388;7.000;2023-03-03T17:32:37;27.83;;;15.73;;
2313;SDS011;42279;51.388;7.000;2023-03-03T17:38:16;26.53;;;14.60;;
2313;SDS011;42279;51.388;7.000;2023-03-03T17:45:17;26.83;;;15.83;;
2313;SDS011;42279;51.388;7.000;2023-03-03T17:50:34;36.87;;;16.03;;
2313;SDS011;42279;51.388;7.000;2023-03-03T17:53:11;33.13;;;16.40;;
2313;SDS011;42279;51.388;7.000;2023-03-03T18:00:54;26.30;;;15.13;;
2313;SDS011;42279;51.388;7.000;2023-03-03T18:11:27;34.07;;;17.40;;
2313;SDS011;42279;51.388;7.000;2023-03-03T18:16:45;31.03;;;18.27;;
2313;SDS011;42279;51.388;7.000;2023-03-03T18:30:12;39.60;;;18.73;;
2313;SDS011;42279;51.388;7.000;2023-03-03T18:32:41;37.30;;;16.77;;
2313;SDS011;42279;51.388;7.000;2023-03-03T18:37:53;28.00;;;16.60;;
2313;SDS011;42279;51.388;7.000;2023-03-03T18:40:27;30.00;;;15.80;;
2313;SDS011;42279;51.388;7.000;2023-03-03T18:42:54;26.23;;;15.70;;
2313;SDS011;42279;51.388;7.000;2023-03-03T18:50:46;33.13;;;17.80;;
2313;SDS011;42279;51.388;7.000;2023-03-03T18:55:48;29.43;;;15.87;;
2313;SDS011;42279;51.388;7.000;2023-03-03T19:00:44;38.77;;;20.73;;
2313;SDS011;42279;51.388;7.000;2023-03-03T19:06:04;34.27;;;18.27;;
2313;SDS011;42279;51.388;7.000;2023-03-03T19:11:34;25.40;;;17.17;;
2313;SDS011;42279;51.388;7.000;2023-03-03T19:14:16;31.90;;;16.67;;
2313;SDS011;42279;51.388;7.000;2023-03-03T19:16:43;26.00;;;13.10;;
2313;SDS011;42279;51.388;7.000;2023-03-03T19:19:11;28.77;;;16.00;;
2313;SDS011;42279;51.388;7.000;2023-03-03T19:21:37;27.73;;;15.60;;
2313;SDS011;42279;51.388;7.000;2023-03-03T19:32:15;32.47;;;16.77;;
2313;SDS011;42279;51.388;7.000;2023-03-03T19:34:59;30.33;;;17.30;;
2313;SDS011;42279;51.388;7.000;2023-03-03T19:37:37;38.97;;;17.17;;
2313;SDS011;42279;51.388;7.000;2023-03-03T19:40:19;28.50;;;16.20;;
2313;SDS011;42279;51.388;7.000;2023-03-03T19:42:59;30.90;;;15.27;;
2313;SDS011;42279;51.388;7.000;2023-03-03T19:48:09;37.33;;;18.13;;
2313;SDS011;42279;51.388;7.000;2023-03-03T19:53:26;37.10;;;17.43;;
2313;SDS011;42279;51.388;7.000;2023-03-03T19:56:03;32.13;;;17.00;;
2313;SDS011;42279;51.388;7.000;2023-03-03T20:01:23;30.77;;;16.90;;
2313;SDS011;42279;51.388;7.000;2023-03-03T20:06:24;29.97;;;16.90;;
2313;SDS011;42279;51.388;7.000;2023-03-03T20:09:06;31.70;;;18.20;;
2313;SDS011;42279;51.388;7.000;2023-03-03T20:11:37;44.30;;;21.20;;
2313;SDS011;42279;51.388;7.000;2023-03-03T20:16:58;33.30;;;19.20;;
2313;SDS011;42279;51.388;7.000;2023-03-03T20:25:05;33.97;;;18.60;;
2313;SDS011;42279;51.388;7.000;2023-03-03T20:27:35;35.57;;;18.93;;
2313;SDS011;42279;51.388;7.000;2023-03-03T20:40:45;35.30;;;18.70;;
2313;SDS011;42279;51.388;7.000;2023-03-03T20:43:58;29.20;;;17.60;;